createdAt,value
2023-04-27T00:00:42.216Z,6.55
2023-04-27T00:01:41.280Z,6.54
2023-04-27T00:02:41.304Z,6.54
2023-04-27T00:03:41.396Z,6.55
2023-04-27T00:04:41.554Z,6.53
2023-04-27T00:05:41.287Z,6.50
2023-04-27T00:06:41.198Z,6.51
2023-04-27T00:07:41.163Z,6.51
2023-04-27T00:08:41.201Z,6.51
2023-04-27T00:09:41.138Z,6.51
2023-04-27T00:10:41.192Z,6.51
2023-04-27T00:11:41.122Z,6.54
2023-04-27T00:12:42.265Z,6.50
2023-04-27T00:13:41.122Z,6.50
2023-04-27T00:14:41.142Z,6.45
2023-04-27T00:15:41.129Z,6.46
2023-04-27T00:16:41.149Z,6.42
2023-04-27T00:17:41.105Z,6.43
2023-04-27T00:18:41.081Z,6.42
2023-04-27T00:19:41.847Z,6.43
2023-04-27T00:20:41.081Z,6.43
2023-04-27T00:21:41.026Z,6.46
2023-04-27T00:22:41.738Z,6.46
2023-04-27T00:23:41.036Z,6.45
2023-04-27T00:24:40.997Z,6.43
2023-04-27T00:25:41.047Z,6.40
2023-04-27T00:26:41.023Z,6.42
2023-04-27T00:27:41.799Z,6.40
2023-04-27T00:28:40.967Z,6.43
2023-04-27T00:29:41.004Z,6.45
2023-04-27T00:30:40.996Z,6.45
2023-04-27T00:31:40.962Z,6.42
2023-04-27T00:32:40.962Z,6.42
2023-04-27T00:33:40.905Z,6.40
2023-04-27T00:34:40.924Z,6.38
2023-04-27T00:35:40.904Z,6.39
2023-04-27T00:36:40.892Z,6.36
2023-04-27T00:37:40.895Z,6.36
2023-04-27T00:38:40.898Z,6.38
2023-04-27T00:39:41.948Z,6.35
2023-04-27T00:40:40.902Z,6.36
2023-04-27T00:41:40.984Z,6.38
2023-04-27T00:42:40.847Z,6.39
2023-04-27T00:43:40.812Z,6.39
2023-04-27T00:44:40.804Z,6.39
2023-04-27T00:45:40.817Z,6.38
2023-04-27T00:46:40.806Z,6.36
2023-04-27T00:47:40.823Z,6.36
2023-04-27T00:48:40.763Z,6.35
2023-04-27T00:49:40.772Z,6.32
2023-04-27T00:50:40.743Z,6.33
2023-04-27T00:51:40.738Z,6.27
2023-04-27T00:52:40.768Z,6.28
2023-04-27T00:53:40.707Z,6.32
2023-04-27T00:54:41.499Z,6.28
2023-04-27T00:55:40.675Z,6.30
2023-04-27T00:56:47.206Z,6.27
2023-04-27T00:57:40.700Z,6.30
2023-04-27T00:58:40.661Z,6.30
2023-04-27T00:59:40.693Z,6.28
2023-04-27T01:00:40.654Z,6.24
2023-04-27T01:01:40.713Z,6.25
2023-04-27T01:02:40.807Z,6.25
2023-04-27T01:03:40.730Z,6.24
2023-04-27T01:04:40.648Z,6.20
2023-04-27T01:05:40.583Z,6.20
2023-04-27T01:06:40.577Z,6.19
2023-04-27T01:07:40.558Z,6.16
2023-04-27T01:08:40.604Z,6.13
2023-04-27T01:09:40.563Z,6.16
2023-04-27T01:10:40.562Z,6.13
2023-04-27T01:11:40.545Z,6.13
2023-04-27T01:12:41.260Z,6.14
2023-04-27T01:13:40.528Z,6.13
2023-04-27T01:14:40.505Z,6.11
2023-04-27T01:15:40.473Z,6.16
2023-04-27T01:16:40.572Z,6.13
2023-04-27T01:17:40.490Z,6.17
2023-04-27T01:18:40.475Z,6.14
2023-04-27T01:19:40.421Z,6.14
2023-04-27T01:20:41.769Z,6.19
2023-04-27T01:21:40.427Z,6.16
2023-04-27T01:22:40.441Z,6.16
2023-04-27T01:23:40.421Z,6.14
2023-04-27T01:24:40.442Z,6.14
2023-04-27T01:25:40.387Z,6.16
2023-04-27T01:26:40.405Z,6.14
2023-04-27T01:27:40.348Z,6.13
2023-04-27T01:28:40.353Z,6.14
2023-04-27T01:29:40.365Z,6.13
2023-04-27T01:30:40.350Z,6.10
2023-04-27T01:31:40.478Z,6.13
2023-04-27T01:32:40.338Z,6.10
2023-04-27T01:33:40.294Z,6.08
2023-04-27T01:34:40.347Z,6.08
2023-04-27T01:35:40.280Z,6.08
2023-04-27T01:36:40.297Z,6.08
2023-04-27T01:37:40.250Z,6.05
2023-04-27T01:38:40.306Z,6.06
2023-04-27T01:39:40.280Z,6.06
2023-04-27T01:40:41.567Z,6.06
2023-04-27T01:41:40.223Z,6.05
2023-04-27T01:42:40.235Z,6.05
2023-04-27T01:43:40.188Z,6.02
2023-04-27T01:44:40.215Z,6.05
2023-04-27T01:45:40.166Z,6.03
2023-04-27T01:46:40.327Z,6.05
2023-04-27T01:47:40.187Z,6.02
2023-04-27T01:48:40.192Z,6.03
2023-04-27T01:49:40.158Z,6.02
2023-04-27T01:50:40.157Z,6.01
2023-04-27T01:51:41.707Z,6.01
2023-04-27T01:52:41.173Z,5.99
2023-04-27T01:53:40.088Z,5.98
2023-04-27T01:54:40.134Z,6.01
2023-04-27T01:55:40.103Z,5.96
2023-04-27T01:56:40.104Z,5.96
2023-04-27T01:57:40.082Z,5.96
2023-04-27T01:58:40.068Z,5.95
2023-04-27T01:59:40.083Z,5.95
2023-04-27T02:00:40.074Z,5.95
2023-04-27T02:01:40.033Z,5.95
2023-04-27T02:02:40.122Z,5.95
2023-04-27T02:03:40.213Z,5.95
2023-04-27T02:04:40.124Z,5.93
2023-04-27T02:05:40.020Z,5.93
2023-04-27T02:06:39.976Z,5.92
2023-04-27T02:07:39.987Z,5.88
2023-04-27T02:08:39.971Z,5.90
2023-04-27T02:09:39.963Z,5.90
2023-04-27T02:10:39.938Z,5.92
2023-04-27T02:11:39.929Z,5.90
2023-04-27T02:12:39.925Z,5.87
2023-04-27T02:13:40.716Z,5.87
2023-04-27T02:14:39.943Z,5.88
2023-04-27T02:15:41.366Z,5.88
2023-04-27T02:16:40.038Z,5.87
2023-04-27T02:17:39.901Z,5.84
2023-04-27T02:18:39.855Z,5.85
2023-04-27T02:19:39.852Z,5.83
2023-04-27T02:20:39.854Z,5.84
2023-04-27T02:21:39.870Z,5.80
2023-04-27T02:22:39.808Z,5.80
2023-04-27T02:23:39.831Z,5.78
2023-04-27T02:24:39.841Z,5.75
2023-04-27T02:25:39.803Z,5.74
2023-04-27T02:26:39.781Z,5.74
2023-04-27T02:27:39.791Z,5.74
2023-04-27T02:28:39.762Z,5.74
2023-04-27T02:29:43.743Z,5.73
2023-04-27T02:30:39.751Z,5.69
2023-04-27T02:31:39.759Z,5.69
2023-04-27T02:32:39.798Z,5.69
2023-04-27T02:33:39.696Z,5.70
2023-04-27T02:34:39.731Z,5.73
2023-04-27T02:35:39.681Z,5.67
2023-04-27T02:36:39.700Z,5.67
2023-04-27T02:37:41.225Z,5.69
2023-04-27T02:38:39.701Z,5.69
2023-04-27T02:39:40.695Z,5.67
2023-04-27T02:40:39.652Z,5.66
2023-04-27T02:41:39.599Z,5.73
2023-04-27T02:42:39.638Z,5.74
2023-04-27T02:43:39.626Z,5.70
2023-04-27T02:44:39.603Z,5.70
2023-04-27T02:45:39.590Z,5.69
2023-04-27T02:46:39.617Z,5.70
2023-04-27T02:47:39.562Z,5.70
2023-04-27T02:48:42.821Z,5.67
2023-04-27T02:49:41.308Z,5.67
2023-04-27T02:50:39.538Z,5.66
2023-04-27T02:51:39.534Z,5.66
2023-04-27T02:52:39.528Z,5.65
2023-04-27T02:53:39.500Z,5.67
2023-04-27T02:54:39.501Z,5.67
2023-04-27T02:55:39.467Z,5.69
2023-04-27T02:56:39.483Z,5.67
2023-04-27T02:57:39.479Z,5.69
2023-04-27T02:58:39.459Z,5.69
2023-04-27T02:59:39.462Z,5.67
2023-04-27T03:00:39.480Z,5.69
2023-04-27T03:01:41.174Z,5.67
2023-04-27T03:02:39.561Z,5.66
2023-04-27T03:03:39.589Z,5.67
2023-04-27T03:04:39.507Z,5.62
2023-04-27T03:05:39.373Z,5.63
2023-04-27T03:06:39.434Z,5.65
2023-04-27T03:07:39.363Z,5.63
2023-04-27T03:08:39.370Z,5.65
2023-04-27T03:09:39.290Z,5.63
2023-04-27T03:10:39.327Z,5.63
2023-04-27T03:11:39.321Z,5.60
2023-04-27T03:12:39.292Z,5.62
2023-04-27T03:13:39.281Z,5.62
2023-04-27T03:14:39.232Z,5.62
2023-04-27T03:15:39.281Z,5.63
2023-04-27T03:16:39.280Z,5.65
2023-04-27T03:17:39.295Z,5.66
2023-04-27T03:18:39.245Z,5.65
2023-04-27T03:19:40.646Z,5.66
2023-04-27T03:20:39.275Z,5.66
2023-04-27T03:21:39.238Z,5.65
2023-04-27T03:22:39.158Z,5.65
2023-04-27T03:23:39.169Z,5.62
2023-04-27T03:24:39.155Z,5.63
2023-04-27T03:25:39.155Z,5.65
2023-04-27T03:26:39.132Z,5.66
2023-04-27T03:27:39.115Z,5.65
2023-04-27T03:28:39.094Z,5.63
2023-04-27T03:29:39.127Z,5.63
2023-04-27T03:30:39.087Z,5.63
2023-04-27T03:31:39.109Z,5.65
2023-04-27T03:32:42.148Z,5.65
2023-04-27T03:33:39.038Z,5.65
2023-04-27T03:34:39.047Z,5.65
2023-04-27T03:35:39.037Z,5.60
2023-04-27T03:36:39.032Z,5.63
2023-04-27T03:37:39.026Z,5.60
2023-04-27T03:38:40.197Z,5.60
2023-04-27T03:39:39.045Z,5.60
2023-04-27T03:40:38.978Z,5.58
2023-04-27T03:41:38.961Z,5.58
2023-04-27T03:42:38.972Z,5.58
2023-04-27T03:43:38.935Z,5.52
2023-04-27T03:44:39.009Z,5.52
2023-04-27T03:45:39.889Z,5.56
2023-04-27T03:46:39.844Z,5.58
2023-04-27T03:47:38.984Z,5.55
2023-04-27T03:48:40.629Z,5.52
2023-04-27T03:49:38.920Z,5.55
2023-04-27T03:50:38.854Z,5.55
2023-04-27T03:51:38.880Z,5.55
2023-04-27T03:52:38.866Z,5.55
2023-04-27T03:53:38.848Z,5.56
2023-04-27T03:54:38.849Z,5.56
2023-04-27T03:55:38.873Z,5.58
2023-04-27T03:56:38.806Z,5.55
2023-04-27T03:57:38.811Z,5.58
2023-04-27T03:58:39.062Z,5.56
2023-04-27T03:59:38.825Z,5.56
2023-04-27T04:00:38.769Z,5.55
2023-04-27T04:01:38.888Z,5.55
2023-04-27T04:02:38.828Z,5.55
2023-04-27T04:03:40.633Z,5.55
2023-04-27T04:04:38.998Z,5.55
2023-04-27T04:05:38.751Z,5.56
2023-04-27T04:06:38.728Z,5.55
2023-04-27T04:07:40.364Z,5.55
2023-04-27T04:08:40.548Z,5.59
2023-04-27T04:09:40.029Z,5.59
2023-04-27T04:10:38.688Z,5.60
2023-04-27T04:11:38.760Z,5.60
2023-04-27T04:12:38.636Z,5.60
2023-04-27T04:13:38.681Z,5.60
2023-04-27T04:14:38.624Z,5.60
2023-04-27T04:15:39.623Z,5.59
2023-04-27T04:16:38.623Z,5.59
2023-04-27T04:17:38.667Z,5.62
2023-04-27T04:18:39.726Z,5.59
2023-04-27T04:19:38.613Z,5.62
2023-04-27T04:20:38.581Z,5.63
2023-04-27T04:21:38.563Z,5.62
2023-04-27T04:22:38.576Z,5.63
2023-04-27T04:23:38.556Z,5.65
2023-04-27T04:24:39.738Z,5.69
2023-04-27T04:25:38.558Z,5.67
2023-04-27T04:26:38.565Z,5.69
2023-04-27T04:27:38.539Z,5.70
2023-04-27T04:28:38.497Z,5.69
2023-04-27T04:29:38.504Z,5.73
2023-04-27T04:30:38.532Z,5.75
2023-04-27T04:31:38.620Z,5.77
2023-04-27T04:32:39.684Z,5.77
2023-04-27T04:33:38.473Z,5.80
2023-04-27T04:34:38.425Z,5.81
2023-04-27T04:35:38.472Z,5.83
2023-04-27T04:36:38.413Z,5.84
2023-04-27T04:37:38.430Z,5.85
2023-04-27T04:38:38.382Z,5.87
2023-04-27T04:39:38.392Z,5.90
2023-04-27T04:40:38.376Z,5.92
2023-04-27T04:41:38.375Z,5.95
2023-04-27T04:42:39.287Z,5.98
2023-04-27T04:43:38.338Z,5.96
2023-04-27T04:44:38.346Z,6.01
2023-04-27T04:45:38.331Z,6.06
2023-04-27T04:46:38.428Z,6.08
2023-04-27T04:47:38.330Z,6.08
2023-04-27T04:48:38.384Z,6.13
2023-04-27T04:49:38.305Z,6.14
2023-04-27T04:50:38.266Z,6.19
2023-04-27T04:51:38.277Z,6.19
2023-04-27T04:52:38.275Z,6.17
2023-04-27T04:53:38.268Z,6.17
2023-04-27T04:54:38.235Z,6.17
2023-04-27T04:55:38.221Z,6.19
2023-04-27T04:56:38.208Z,6.24
2023-04-27T04:57:38.255Z,6.28
2023-04-27T04:58:38.184Z,6.28
2023-04-27T04:59:38.186Z,6.28
2023-04-27T05:00:38.190Z,6.30
2023-04-27T05:01:44.211Z,6.30
2023-04-27T05:02:39.423Z,6.32
2023-04-27T05:03:38.360Z,6.35
2023-04-27T05:04:38.247Z,6.38
2023-04-27T05:05:39.749Z,6.39
2023-04-27T05:06:38.115Z,6.38
2023-04-27T05:07:38.083Z,6.39
2023-04-27T05:08:39.728Z,6.36
2023-04-27T05:09:38.845Z,6.38
2023-04-27T05:10:38.077Z,6.38
2023-04-27T05:11:38.737Z,6.39
2023-04-27T05:12:38.072Z,6.42
2023-04-27T05:13:38.060Z,6.46
2023-04-27T05:14:38.768Z,6.51
2023-04-27T05:15:38.059Z,6.55
2023-04-27T05:16:38.867Z,6.55
2023-04-27T05:17:38.052Z,6.58
2023-04-27T05:18:37.999Z,6.65
2023-04-27T05:19:38.036Z,6.71
2023-04-27T05:20:37.967Z,6.73
2023-04-27T05:21:38.024Z,6.82
2023-04-27T05:22:37.949Z,6.86
2023-04-27T05:23:37.964Z,6.76
2023-04-27T05:24:39.500Z,6.78
2023-04-27T05:25:38.644Z,6.79
2023-04-27T05:26:39.967Z,6.81
2023-04-27T05:27:39.516Z,6.82
2023-04-27T05:28:39.549Z,6.76
2023-04-27T05:29:38.853Z,6.75
2023-04-27T05:30:38.486Z,6.78
2023-04-27T05:31:37.907Z,6.82
2023-04-27T05:32:37.924Z,6.87
2023-04-27T05:33:38.614Z,6.90
2023-04-27T05:34:37.818Z,6.94
2023-04-27T05:35:38.386Z,6.97
2023-04-27T05:36:37.876Z,6.97
2023-04-27T05:37:37.837Z,6.97
2023-04-27T05:38:38.196Z,6.93
2023-04-27T05:39:37.787Z,7.01
2023-04-27T05:40:37.757Z,7.09
2023-04-27T05:41:37.777Z,7.15
2023-04-27T05:42:39.404Z,7.21
2023-04-27T05:43:37.728Z,7.33
2023-04-27T05:44:37.817Z,7.36
2023-04-27T05:45:38.373Z,7.45
2023-04-27T05:46:38.804Z,7.55
2023-04-27T05:47:37.756Z,7.55
2023-04-27T05:48:37.874Z,7.55
2023-04-27T05:49:39.588Z,7.51
2023-04-27T05:50:37.675Z,7.51
2023-04-27T05:51:38.419Z,7.60
2023-04-27T05:52:38.526Z,7.67
2023-04-27T05:53:39.051Z,7.50
2023-04-27T05:54:37.748Z,7.47
2023-04-27T05:55:38.366Z,7.50
2023-04-27T05:56:37.699Z,7.57
2023-04-27T05:57:37.688Z,7.66
2023-04-27T05:58:37.591Z,7.70
2023-04-27T06:02:21.585Z,7.70
2023-04-27T06:03:22.739Z,7.79
2023-04-27T06:04:22.550Z,7.94
2023-04-27T06:05:22.266Z,8.07
2023-04-27T06:06:22.194Z,8.55
2023-04-27T06:07:24.120Z,9.62
2023-04-27T06:08:23.208Z,9.53
2023-04-27T06:09:23.350Z,9.37
2023-04-27T06:10:22.153Z,10.01
2023-04-27T06:11:22.800Z,10.44
2023-04-27T06:12:22.147Z,10.32
2023-04-27T06:13:22.187Z,10.31
2023-04-27T06:14:22.091Z,10.72
2023-04-27T06:15:22.768Z,10.62
2023-04-27T06:16:23.770Z,10.35
2023-04-27T06:17:22.767Z,10.25
2023-04-27T06:18:22.072Z,10.06
2023-04-27T06:19:25.850Z,9.75
2023-04-27T06:20:23.628Z,9.91
2023-04-27T06:21:23.637Z,10.35
2023-04-27T06:22:22.015Z,10.70
2023-04-27T06:23:22.773Z,11.77
2023-04-27T06:24:23.612Z,12.21
2023-04-27T06:25:23.268Z,12.91
2023-04-27T06:26:22.029Z,12.85
2023-04-27T06:27:22.007Z,13.10
2023-04-27T06:28:21.968Z,13.27
2023-04-27T06:29:22.033Z,13.24
2023-04-27T06:30:21.965Z,13.65
2023-04-27T06:31:22.090Z,13.91
2023-04-27T06:32:21.916Z,14.30
2023-04-27T06:33:21.978Z,14.41
2023-04-27T06:34:21.905Z,14.35
2023-04-27T06:35:21.906Z,14.52
2023-04-27T06:36:21.880Z,14.82
2023-04-27T06:37:22.722Z,14.20
2023-04-27T06:38:21.877Z,14.54
2023-04-27T06:39:21.839Z,13.24
2023-04-27T06:40:22.535Z,12.40
2023-04-27T06:41:21.874Z,12.00
2023-04-27T06:42:21.881Z,11.30
2023-04-27T06:43:21.806Z,10.94
2023-04-27T06:44:21.773Z,10.65
2023-04-27T06:45:21.806Z,10.58
2023-04-27T06:46:21.837Z,10.72
2023-04-27T06:47:21.790Z,11.49
2023-04-27T06:48:21.794Z,12.29
2023-04-27T06:49:21.746Z,12.05
2023-04-27T06:50:21.744Z,12.31
2023-04-27T06:51:21.770Z,13.99
2023-04-27T06:52:21.702Z,14.66
2023-04-27T06:53:21.734Z,15.13
2023-04-27T06:54:21.698Z,15.04
2023-04-27T06:55:22.244Z,15.11
2023-04-27T06:56:21.668Z,14.74
2023-04-27T06:57:21.668Z,15.05
2023-04-27T06:58:21.653Z,14.95
2023-04-27T06:59:21.657Z,14.87
2023-04-27T07:00:21.600Z,14.71
2023-04-27T07:01:21.749Z,14.16
2023-04-27T07:02:23.151Z,13.51
2023-04-27T07:03:21.797Z,14.66
2023-04-27T07:04:21.875Z,15.77
2023-04-27T07:05:22.257Z,14.94
2023-04-27T07:06:21.603Z,14.17
2023-04-27T07:07:21.607Z,13.36
2023-04-27T07:08:21.533Z,13.47
2023-04-27T07:10:21.493Z,13.38
2023-04-27T07:11:21.576Z,12.67
2023-04-27T07:12:21.553Z,12.43
2023-04-27T07:13:23.177Z,11.96
2023-04-27T07:14:21.528Z,12.25
2023-04-27T07:15:21.459Z,12.70
2023-04-27T07:16:21.489Z,12.87
2023-04-27T07:17:21.485Z,12.22
2023-04-27T07:18:21.452Z,12.22
2023-04-27T07:19:21.495Z,12.00
2023-04-27T07:20:21.403Z,11.59
2023-04-27T07:21:22.024Z,11.30
2023-04-27T07:22:22.325Z,11.44
2023-04-27T07:23:22.416Z,11.35
2023-04-27T07:24:24.104Z,11.51
2023-04-27T07:25:21.359Z,11.75
2023-04-27T07:26:21.538Z,11.59
2023-04-27T07:27:21.336Z,11.78
2023-04-27T07:28:21.380Z,11.93
2023-04-27T07:29:27.070Z,11.82
2023-04-27T07:30:22.240Z,11.77
2023-04-27T07:31:21.369Z,11.69
2023-04-27T07:32:21.331Z,11.41
2023-04-27T07:33:21.386Z,11.13
2023-04-27T07:34:21.254Z,11.12
2023-04-27T07:35:21.250Z,11.03
2023-04-27T07:36:21.268Z,11.09
2023-04-27T07:37:21.363Z,10.91
2023-04-27T07:38:21.262Z,11.08
2023-04-27T07:39:21.252Z,11.13
2023-04-27T07:40:21.244Z,11.30
2023-04-27T07:41:21.237Z,11.72
2023-04-27T07:42:21.206Z,11.63
2023-04-27T07:43:21.195Z,11.38
2023-04-27T07:44:21.195Z,11.08
2023-04-27T07:45:21.149Z,11.20
2023-04-27T07:46:21.169Z,11.46
2023-04-27T07:47:21.140Z,11.28
2023-04-27T07:48:21.166Z,10.90
2023-04-27T07:49:21.181Z,10.80
2023-04-27T07:50:21.118Z,10.93
2023-04-27T07:51:21.109Z,10.93
2023-04-27T07:52:21.230Z,11.13
2023-04-27T07:53:21.135Z,11.23
2023-04-27T07:54:21.156Z,11.45
2023-04-27T07:55:21.034Z,11.75
2023-04-27T07:56:21.034Z,12.29
2023-04-27T07:57:21.671Z,12.34
2023-04-27T07:58:21.120Z,12.33
2023-04-27T07:59:23.749Z,12.38
2023-04-27T08:00:20.970Z,12.79
2023-04-27T08:01:21.578Z,14.30
2023-04-27T08:02:21.823Z,15.15
2023-04-27T08:03:22.996Z,14.19
2023-04-27T08:04:21.229Z,13.53
2023-04-27T08:05:21.275Z,13.96
2023-04-27T08:06:21.266Z,14.01
2023-04-27T08:07:20.939Z,13.87
2023-04-27T08:08:21.759Z,13.53
2023-04-27T08:09:20.866Z,13.79
2023-04-27T08:10:21.032Z,13.90
2023-04-27T08:11:20.926Z,13.86
2023-04-27T08:12:20.899Z,13.79
2023-04-27T08:13:20.888Z,13.16
2023-04-27T08:14:20.849Z,12.91
2023-04-27T08:15:20.848Z,12.66
2023-04-27T08:16:21.109Z,12.49
2023-04-27T08:17:20.898Z,12.04
2023-04-27T08:18:20.882Z,11.74
2023-04-27T08:19:22.575Z,11.30
2023-04-27T08:20:20.825Z,10.84
2023-04-27T08:21:20.793Z,10.55
2023-04-27T08:22:20.774Z,10.31
2023-04-27T08:23:20.767Z,10.25
2023-04-27T08:24:20.827Z,10.28
2023-04-27T08:25:20.774Z,10.06
2023-04-27T08:26:20.746Z,9.86
2023-04-27T08:27:21.286Z,10.02
2023-04-27T08:28:20.721Z,10.22
2023-04-27T08:32:52.783Z,13.54
2023-04-27T08:33:52.840Z,13.41
2023-04-27T08:34:52.847Z,13.12
2023-04-27T08:35:52.861Z,12.61
2023-04-27T08:36:53.699Z,11.90
2023-04-27T08:37:52.829Z,11.27
2023-04-27T08:38:52.825Z,11.45
2023-04-27T08:39:52.807Z,11.30
2023-04-27T08:40:52.854Z,11.41
2023-04-27T08:41:52.759Z,11.24
2023-04-27T08:42:52.780Z,10.88
2023-04-27T08:43:52.842Z,10.54
2023-04-27T08:44:52.788Z,10.17
2023-04-27T08:45:52.763Z,9.96
2023-04-27T08:46:53.913Z,9.89
2023-04-27T08:47:53.756Z,9.86
2023-04-27T08:48:53.544Z,9.88
2023-04-27T08:49:52.670Z,9.92
2023-04-27T08:50:52.686Z,9.77
2023-04-27T08:51:53.287Z,9.75
2023-04-27T08:52:52.697Z,9.92
2023-04-27T08:53:54.261Z,10.13
2023-04-27T08:54:52.670Z,10.34
2023-04-27T08:55:53.187Z,10.28
2023-04-27T08:56:52.712Z,10.39
2023-04-27T08:57:52.657Z,10.49
2023-04-27T08:58:52.939Z,11.17
2023-04-27T08:59:53.327Z,11.74
2023-04-27T09:00:52.777Z,12.85
2023-04-27T09:01:54.189Z,12.76
2023-04-27T09:03:07.545Z,12.37
2023-04-27T09:03:53.037Z,12.13
2023-04-27T09:04:52.712Z,11.93
2023-04-27T09:06:04.743Z,11.67
2023-04-27T09:06:52.640Z,11.44
2023-04-27T09:07:52.619Z,11.20
2023-04-27T09:08:52.507Z,11.09
2023-04-27T09:09:52.472Z,11.16
2023-04-27T09:10:52.472Z,11.24
2023-04-27T09:11:52.459Z,11.23
2023-04-27T09:12:53.193Z,11.17
2023-04-27T09:13:52.437Z,11.12
2023-04-27T09:14:52.418Z,11.12
2023-04-27T09:15:52.499Z,11.19
2023-04-27T09:16:52.519Z,11.31
2023-04-27T09:17:52.421Z,11.41
2023-04-27T09:18:52.402Z,11.70
2023-04-27T09:19:52.453Z,11.70
2023-04-27T09:20:52.378Z,11.63
2023-04-27T09:21:52.363Z,11.48
2023-04-27T09:22:52.340Z,11.54
2023-04-27T09:23:52.378Z,11.54
2023-04-27T09:24:52.376Z,11.56
2023-04-27T09:25:52.357Z,11.90
2023-04-27T09:26:52.363Z,12.37
2023-04-27T09:27:52.275Z,12.38
2023-04-27T09:28:52.280Z,12.37
2023-04-27T09:29:52.294Z,12.36
2023-04-27T09:30:52.243Z,12.44
2023-04-27T09:31:52.562Z,12.37
2023-04-27T09:32:52.269Z,12.44
2023-04-27T09:33:52.655Z,12.44
2023-04-27T09:34:52.230Z,12.41
2023-04-27T09:35:53.321Z,12.26
2023-04-27T09:36:52.187Z,12.30
2023-04-27T09:37:52.184Z,12.44
2023-04-27T09:38:52.203Z,12.54
2023-04-27T09:39:52.184Z,12.48
2023-04-27T09:40:52.144Z,12.26
2023-04-27T09:41:52.211Z,12.22
2023-04-27T09:44:24.226Z,15.07
2023-04-27T09:45:25.178Z,16.23
2023-04-27T09:46:25.252Z,17.40
2023-04-27T09:47:25.891Z,18.02
2023-04-27T09:48:25.888Z,18.39
2023-04-27T09:49:25.142Z,18.50
2023-04-27T09:50:25.889Z,18.65
2023-04-27T09:51:25.823Z,18.90
2023-04-27T09:52:25.128Z,19.24
2023-04-27T09:53:25.133Z,19.83
2023-04-27T09:54:25.155Z,20.10
2023-04-27T09:55:25.152Z,19.65
2023-04-27T09:56:25.198Z,18.21
2023-04-27T09:57:25.124Z,17.65
2023-04-27T09:58:25.048Z,17.62
2023-04-27T09:59:25.098Z,16.75
2023-04-27T10:00:25.233Z,15.27
2023-04-27T10:01:25.028Z,15.43
2023-04-27T10:02:25.815Z,15.22
2023-04-27T10:03:25.756Z,14.79
2023-04-27T10:04:25.420Z,14.41
2023-04-27T10:05:25.216Z,14.16
2023-04-27T10:06:26.023Z,14.19
2023-04-27T10:07:25.126Z,13.79
2023-04-27T10:08:24.910Z,13.71
2023-04-27T10:09:24.995Z,13.35
2023-04-27T10:10:25.114Z,13.10
2023-04-27T10:11:24.898Z,12.89
2023-04-27T10:12:24.863Z,12.46
2023-04-27T10:13:24.870Z,11.98
2023-04-27T10:14:24.869Z,11.87
2023-04-27T10:15:24.842Z,11.63
2023-04-27T10:16:24.892Z,11.62
2023-04-27T10:17:24.842Z,11.63
2023-04-27T10:18:24.810Z,11.96
2023-04-27T10:19:24.968Z,13.09
2023-04-27T10:20:24.821Z,12.34
2023-04-27T10:21:24.852Z,12.08
2023-04-27T10:22:24.772Z,13.50
2023-04-27T10:23:24.739Z,13.66
2023-04-27T10:24:24.773Z,14.31
2023-04-27T10:25:24.760Z,15.37
2023-04-27T10:26:24.743Z,16.34
2023-04-27T10:27:24.729Z,17.33
2023-04-27T10:28:24.744Z,18.17
2023-04-27T10:29:24.705Z,18.25
2023-04-27T10:30:24.686Z,18.36
2023-04-27T10:31:24.773Z,18.56
2023-04-27T10:32:24.706Z,18.02
2023-04-27T10:33:24.691Z,17.71
2023-04-27T10:34:24.623Z,17.77
2023-04-27T10:35:24.602Z,18.44
2023-04-27T10:36:24.642Z,19.31
2023-04-27T10:37:24.611Z,20.12
2023-04-27T10:38:24.621Z,20.08
2023-04-27T10:39:32.984Z,19.86
2023-04-27T10:40:24.571Z,19.97
2023-04-27T10:41:24.556Z,19.97
2023-04-27T10:42:24.561Z,20.01
2023-04-27T10:43:24.534Z,20.02
2023-04-27T10:44:24.555Z,18.90
2023-04-27T10:45:24.540Z,17.70
2023-04-27T10:46:24.593Z,15.76
2023-04-27T10:47:24.643Z,14.80
2023-04-27T10:48:24.475Z,14.49
2023-04-27T10:49:24.468Z,14.23
2023-04-27T10:50:24.466Z,13.68
2023-04-27T10:51:24.514Z,13.51
2023-04-27T10:52:24.517Z,13.65
2023-04-27T10:53:24.501Z,13.66
2023-04-27T10:54:24.460Z,13.88
2023-04-27T10:55:24.490Z,13.83
2023-04-27T10:56:24.386Z,13.16
2023-04-27T10:57:24.452Z,12.55
2023-04-27T10:58:26.697Z,12.36
2023-04-27T10:59:24.396Z,12.25
2023-04-27T11:00:24.333Z,12.16
2023-04-27T11:01:24.425Z,12.18
2023-04-27T11:02:24.481Z,12.15
2023-04-27T11:03:25.581Z,11.82
2023-04-27T11:04:24.450Z,11.74
2023-04-27T11:05:24.305Z,11.87
2023-04-27T11:06:24.285Z,12.16
2023-04-27T11:07:24.372Z,12.36
2023-04-27T11:08:24.277Z,12.55
2023-04-27T11:09:24.290Z,12.89
2023-04-27T11:10:24.242Z,13.28
2023-04-27T11:11:24.282Z,13.94
2023-04-27T11:12:24.352Z,13.80
2023-04-27T11:13:24.208Z,13.50
2023-04-27T11:14:24.331Z,13.36
2023-04-27T11:15:24.211Z,13.21
2023-04-27T11:16:24.221Z,12.96
2023-04-27T11:17:24.283Z,12.92
2023-04-27T11:18:24.145Z,13.44
2023-04-27T11:19:24.222Z,13.50
2023-04-27T11:20:24.144Z,13.36
2023-04-27T11:21:24.137Z,13.09
2023-04-27T11:22:24.294Z,13.10
2023-04-27T11:23:24.161Z,13.09
2023-04-27T11:24:24.212Z,13.09
2023-04-27T11:25:24.162Z,13.07
2023-04-27T11:26:24.064Z,13.17
2023-04-27T11:27:24.317Z,13.25
2023-04-27T11:28:24.209Z,13.27
2023-04-27T11:29:24.095Z,13.13
2023-04-27T11:30:24.025Z,13.04
2023-04-27T11:31:24.126Z,13.13
2023-04-27T11:32:24.558Z,13.19
2023-04-27T11:33:24.007Z,13.31
2023-04-27T11:34:24.035Z,14.95
2023-04-27T11:35:23.993Z,16.54
2023-04-27T11:36:24.011Z,17.68
2023-04-27T11:37:24.035Z,19.15
2023-04-27T11:38:24.968Z,18.87
2023-04-27T11:39:24.173Z,18.29
2023-04-27T11:40:24.633Z,17.89
2023-04-27T11:41:23.930Z,18.19
2023-04-27T11:42:23.963Z,19.12
2023-04-27T11:43:23.897Z,19.90
2023-04-27T11:44:23.869Z,20.50
2023-04-27T11:45:23.892Z,19.43
2023-04-27T11:46:23.913Z,18.87
2023-04-27T11:47:23.991Z,18.86
2023-04-27T11:48:23.841Z,18.13
2023-04-27T11:49:23.867Z,17.02
2023-04-27T11:50:23.809Z,16.84
2023-04-27T11:51:23.819Z,15.93
2023-04-27T11:52:23.919Z,15.80
2023-04-27T11:53:23.779Z,15.76
2023-04-27T11:54:23.820Z,15.23
2023-04-27T11:55:24.404Z,15.03
2023-04-27T11:56:23.756Z,14.86
2023-04-27T11:57:23.774Z,14.91
2023-04-27T11:58:23.857Z,14.66
2023-04-27T11:59:23.779Z,14.82
2023-04-27T12:00:24.443Z,15.05
2023-04-27T12:01:34.798Z,15.13
2023-04-27T12:02:23.920Z,15.35
2023-04-27T12:03:24.096Z,15.48
2023-04-27T12:04:23.998Z,15.19
2023-04-27T12:05:23.908Z,15.20
2023-04-27T12:06:32.690Z,15.07
2023-04-27T12:07:23.717Z,14.94
2023-04-27T12:08:23.639Z,14.90
2023-04-27T12:09:23.677Z,14.85
2023-04-27T12:10:23.602Z,15.01
2023-04-27T12:11:23.849Z,15.22
2023-04-27T12:12:23.627Z,15.30
2023-04-27T12:13:23.658Z,15.00
2023-04-27T12:14:24.405Z,14.85
2023-04-27T12:15:23.579Z,14.78
2023-04-27T12:16:23.688Z,14.61
2023-04-27T12:17:23.559Z,14.49
2023-04-27T12:18:23.694Z,14.27
2023-04-27T12:19:23.704Z,14.09
2023-04-27T12:20:23.598Z,13.91
2023-04-27T12:21:23.582Z,13.87
2023-04-27T12:22:23.488Z,13.91
2023-04-27T12:23:24.390Z,13.90
2023-04-27T12:24:24.218Z,14.04
2023-04-27T12:25:24.379Z,14.19
2023-04-27T12:26:23.495Z,14.39
2023-04-27T12:27:23.441Z,14.49
2023-04-27T12:28:23.486Z,14.42
2023-04-27T12:29:23.443Z,14.24
2023-04-27T12:30:23.408Z,14.16
2023-04-27T12:31:26.105Z,13.93
2023-04-27T12:32:23.391Z,14.02
2023-04-27T12:33:23.510Z,14.26
2023-04-27T12:34:23.561Z,14.44
2023-04-27T12:35:23.348Z,14.19
2023-04-27T12:36:23.356Z,13.98
2023-04-27T12:37:25.484Z,14.08
2023-04-27T12:38:23.334Z,14.38
2023-04-27T12:39:23.292Z,14.21
2023-04-27T12:40:23.353Z,14.04
2023-04-27T12:41:23.317Z,14.01
2023-04-27T12:42:23.268Z,14.13
2023-04-27T12:43:23.339Z,14.21
2023-04-27T12:44:23.270Z,13.99
2023-04-27T12:45:23.934Z,14.31
2023-04-27T12:46:23.438Z,14.69
2023-04-27T12:47:38.403Z,14.93
2023-04-27T12:48:23.206Z,15.31
2023-04-27T12:49:23.229Z,15.80
2023-04-27T12:50:23.196Z,15.93
2023-04-27T12:51:23.255Z,15.96
2023-04-27T12:52:23.151Z,15.91
2023-04-27T12:53:23.154Z,15.64
2023-04-27T12:54:23.158Z,15.05
2023-04-27T12:55:32.866Z,14.24
2023-04-27T12:56:23.105Z,14.30
2023-04-27T12:57:23.947Z,14.39
2023-04-27T12:58:23.084Z,14.57
2023-04-27T12:59:23.111Z,15.05
2023-04-27T13:00:23.073Z,16.17
2023-04-27T13:01:23.090Z,17.47
2023-04-27T13:02:23.237Z,17.60
2023-04-27T13:03:23.220Z,16.84
2023-04-27T13:04:23.585Z,17.76
2023-04-27T13:05:23.021Z,18.56
2023-04-27T13:06:23.015Z,18.99
2023-04-27T13:07:23.032Z,18.17
2023-04-27T13:08:22.990Z,17.09
2023-04-27T13:09:23.017Z,15.64
2023-04-27T13:10:23.046Z,15.01
2023-04-27T13:11:22.990Z,14.39
2023-04-27T13:12:22.939Z,14.24
2023-04-27T13:13:22.980Z,14.24